Time;durP1;ratioP1;P1;durP2;ratioP2;P2;SDS_P1;SDS_P2;PMS_P1;PMS_P2;Temp;Humidity;BMP_temperature;BMP_pressure;BME280_temperature;BME280_humidity;BME280_pressure;Samples;Min_cycle;Max_cycle;Signal;HPM_P1;HPM_P2
2022/02/25 00:00:07;;;;;;;15.63;4.97;;;6.30;70.80;;;;;;4976672;28;20053;-70
2022/02/25 00:02:38;;;;;;;11.52;4.82;;;6.30;71.00;;;;;;4976331;28;20053;-70
2022/02/25 00:05:05;;;;;;;11.70;4.50;;;6.30;70.50;;;;;;4992047;28;20054;-70
2022/02/25 00:07:32;;;;;;;11.35;4.82;;;6.20;71.20;;;;;;4988780;28;20041;-70
2022/02/25 00:09:59;;;;;;;9.07;3.60;;;6.20;71.50;;;;;;5004932;28;20301;-70
2022/02/25 00:12:26;;;;;;;10.43;4.18;;;6.30;71.30;;;;;;4992944;28;20046;-70
2022/02/25 00:14:54;;;;;;;12.57;5.18;;;6.30;71.00;;;;;;4992794;28;20057;-71
2022/02/25 00:17:21;;;;;;;16.17;5.03;;;6.20;71.50;;;;;;4971344;28;20046;-70
2022/02/25 00:19:48;;;;;;;10.40;4.50;;;6.20;72.10;;;;;;4990697;28;20128;-70
2022/02/25 00:22:16;;;;;;;14.50;4.32;;;6.00;72.20;;;;;;4992192;28;20101;-70
2022/02/25 00:24:45;;;;;;;10.00;4.55;;;6.00;72.50;;;;;;4991466;28;20052;-70
2022/02/25 00:27:12;;;;;;;11.07;4.15;;;5.80;73.00;;;;;;4992281;28;20046;-70
2022/02/25 00:29:39;;;;;;;9.80;4.40;;;5.90;72.90;;;;;;4981617;28;20066;-70
2022/02/25 00:32:07;;;;;;;8.70;3.53;;;5.90;73.10;;;;;;5008226;28;20048;-70
2022/02/25 00:34:34;;;;;;;13.27;3.95;;;5.90;73.20;;;;;;4988359;28;20142;-70
2022/02/25 00:37:01;;;;;;;10.25;4.65;;;6.10;72.10;;;;;;4990596;28;20131;-70
2022/02/25 00:39:28;;;;;;;11.40;4.03;;;5.80;72.60;;;;;;4991439;28;20088;-70
2022/02/25 00:41:55;;;;;;;7.13;3.38;;;5.70;73.30;;;;;;5007094;28;20054;-71
2022/02/25 00:44:22;;;;;;;9.38;3.17;;;5.70;73.80;;;;;;4992551;28;20046;-70
2022/02/25 00:46:51;;;;;;;10.00;3.22;;;5.60;73.60;;;;;;4990603;28;20148;-70
2022/02/25 00:49:19;;;;;;;7.50;3.08;;;5.70;73.60;;;;;;4972405;28;20490;-71
2022/02/25 00:51:45;;;;;;;9.80;3.92;;;5.80;73.40;;;;;;4991333;28;20120;-70
2022/02/25 00:54:13;;;;;;;10.45;4.05;;;5.70;73.50;;;;;;4993692;28;20437;-70
2022/02/25 00:56:40;;;;;;;10.48;3.70;;;5.70;73.60;;;;;;4993325;28;20050;-70
2022/02/25 00:59:07;;;;;;;9.40;3.50;;;5.60;74.00;;;;;;4993450;28;20045;-70
2022/02/25 01:01:34;;;;;;;11.30;3.85;;;5.50;74.30;;;;;;4991564;28;20607;-70
2022/02/25 01:04:02;;;;;;;8.15;3.10;;;5.50;74.30;;;;;;4992036;28;20038;-70
2022/02/25 01:06:29;;;;;;;10.02;3.08;;;5.60;74.50;;;;;;4989736;28;20053;-70
2022/02/25 01:08:57;;;;;;;10.80;3.47;;;5.80;73.70;;;;;;4988856;28;20065;-70
2022/02/25 01:11:24;;;;;;;7.90;3.40;;;5.80;74.00;;;;;;5006416;28;20109;-70
2022/02/25 01:13:51;;;;;;;9.48;3.60;;;5.70;74.00;;;;;;4989585;28;20057;-70
2022/02/25 01:16:20;;;;;;;10.25;2.92;;;5.90;73.20;;;;;;4992389;28;20045;-70
2022/02/25 01:18:47;;;;;;;12.15;3.53;;;5.90;73.10;;;;;;4976509;28;20129;-70
2022/02/25 01:21:14;;;;;;;9.90;4.13;;;6.00;73.10;;;;;;4982159;28;20048;-70
2022/02/25 01:23:41;;;;;;;11.70;3.80;;;5.80;73.10;;;;;;4988995;28;20038;-70
2022/02/25 01:26:09;;;;;;;11.38;3.55;;;5.70;73.50;;;;;;4989031;28;20053;-70
2022/02/25 01:28:38;;;;;;;10.60;3.42;;;5.60;73.60;;;;;;4992172;28;20069;-71
2022/02/25 01:31:05;;;;;;;12.63;3.38;;;5.60;73.60;;;;;;4989922;28;20058;-70
2022/02/25 01:33:32;;;;;;;8.02;3.15;;;5.40;74.20;;;;;;4990932;28;20049;-70
2022/02/25 01:36:00;;;;;;;6.95;3.03;;;5.40;74.70;;;;;;4990749;28;20062;-70
2022/02/25 01:38:28;;;;;;;9.07;4.40;;;5.60;74.00;;;;;;4993328;28;20681;-70
2022/02/25 01:40:55;;;;;;;10.32;3.08;;;5.50;74.20;;;;;;5006248;28;20050;-70
2022/02/25 01:43:23;;;;;;;9.07;3.75;;;5.60;73.90;;;;;;4989189;28;20661;-70
2022/02/25 01:45:50;;;;;;;11.00;3.38;;;5.70;73.20;;;;;;5006272;28;20461;-70
2022/02/25 01:48:19;;;;;;;12.05;3.72;;;5.60;73.20;;;;;;4991452;28;20053;-70
2022/02/25 01:50:46;;;;;;;9.90;4.03;;;5.40;73.90;;;;;;4988557;28;20072;-70
2022/02/25 01:53:14;;;;;;;10.02;3.75;;;5.20;74.60;;;;;;4989527;28;20100;-70
2022/02/25 01:55:42;;;;;;;9.57;3.30;;;5.20;74.70;;;;;;4990338;28;20038;-70
2022/02/25 01:58:09;;;;;;;8.10;3.17;;;5.00;75.30;;;;;;4988721;28;20500;-71
2022/02/25 02:00:37;;;;;;;7.13;2.83;;;4.90;75.70;;;;;;5000039;28;20042;-70
2022/02/25 02:03:05;;;;;;;10.20;2.63;;;4.80;75.70;;;;;;5009874;28;20677;-70
2022/02/25 02:05:33;;;;;;;9.13;3.30;;;5.00;75.60;;;;;;4995646;28;20050;-70
2022/02/25 02:08:00;;;;;;;7.28;3.42;;;5.10;75.10;;;;;;4997508;28;20054;-70
2022/02/25 02:10:28;;;;;;;9.45;3.15;;;5.00;75.50;;;;;;4994157;28;20053;-70
2022/02/25 02:12:55;;;;;;;8.68;2.90;;;5.00;75.50;;;;;;4993828;28;20121;-70
2022/02/25 02:15:22;;;;;;;9.77;3.85;;;4.80;75.80;;;;;;4994602;28;20049;-70
2022/02/25 02:17:49;;;;;;;11.32;4.85;;;4.80;76.30;;;;;;4989930;28;20042;-70
2022/02/25 02:20:16;;;;;;;7.47;3.25;;;5.00;75.90;;;;;;4997636;28;20527;-70
2022/02/25 02:22:43;;;;;;;8.45;3.45;;;4.90;75.60;;;;;;5001537;28;20116;-70
2022/02/25 02:25:10;;;;;;;10.73;3.10;;;4.80;76.10;;;;;;4994220;28;20101;-70
2022/02/25 02:30:22;;;;;;;10.25;3.30;;;5.00;75.60;;;;;;4993299;28;20120;-70
2022/02/25 02:32:50;;;;;;;8.95;3.67;;;4.90;75.60;;;;;;4993114;28;20109;-70
2022/02/25 02:35:17;;;;;;;9.13;3.00;;;4.90;75.40;;;;;;4992847;28;20149;-70
2022/02/25 02:37:43;;;;;;;15.65;3.22;;;5.00;74.90;;;;;;4976885;28;20056;-70
2022/02/25 02:40:11;;;;;;;9.65;3.75;;;5.00;74.80;;;;;;4976507;28;20500;-70
2022/02/25 02:42:38;;;;;;;8.73;2.70;;;5.10;74.70;;;;;;5009361;28;20054;-70
2022/02/25 02:45:06;;;;;;;7.82;2.70;;;5.00;74.40;;;;;;4996606;28;20133;-70
2022/02/25 02:47:33;;;;;;;8.43;3.35;;;4.90;74.60;;;;;;4996532;28;20046;-70
2022/02/25 02:50:03;;;;;;;13.05;3.47;;;4.90;74.70;;;;;;4993552;28;20053;-70
2022/02/25 02:52:31;;;;;;;6.75;2.60;;;5.00;74.00;;;;;;4992426;28;20177;-69
2022/02/25 02:54:59;;;;;;;7.13;2.75;;;4.70;74.60;;;;;;4992475;28;20057;-70
2022/02/25 02:57:26;;;;;;;8.20;2.67;;;4.60;75.00;;;;;;4991670;28;20069;-70
2022/02/25 02:59:53;;;;;;;9.80;3.25;;;4.60;75.30;;;;;;4990103;28;20625;-70
2022/02/25 03:02:20;;;;;;;9.38;3.05;;;4.80;74.40;;;;;;5008622;28;20713;-70
2022/02/25 03:04:48;;;;;;;12.80;3.80;;;4.80;74.20;;;;;;5009281;28;20046;-70
2022/02/25 03:07:15;;;;;;;11.15;3.08;;;4.90;73.70;;;;;;4991076;28;20104;-70
2022/02/25 03:09:42;;;;;;;12.77;4.07;;;5.00;73.30;;;;;;5006983;28;20092;-69
2022/02/25 03:12:09;;;;;;;13.15;3.22;;;4.80;73.30;;;;;;4992794;28;20467;-70
2022/02/25 03:14:36;;;;;;;8.18;2.88;;;4.70;73.80;;;;;;5008022;28;21018;-70
2022/02/25 03:17:04;;;;;;;10.05;3.58;;;4.60;74.30;;;;;;5003173;28;20053;-69
2022/02/25 03:19:35;;;;;;;9.65;3.60;;;4.60;74.40;;;;;;4993963;28;20034;-69
2022/02/25 03:22:02;;;;;;;12.32;3.83;;;4.60;74.20;;;;;;4993918;28;20050;-69
2022/02/25 03:24:49;;;;;;;10.90;3.05;;;4.70;74.10;;;;;;4992159;28;20395;-70
2022/02/25 03:27:16;;;;;;;9.82;3.20;;;4.50;74.50;;;;;;5007306;28;20050;-69
2022/02/25 03:29:43;;;;;;;10.10;3.95;;;4.50;74.60;;;;;;5007530;28;20104;-70
2022/02/25 03:32:10;;;;;;;10.68;3.33;;;4.60;74.30;;;;;;4989706;28;20066;-70
2022/02/25 03:34:38;;;;;;;8.77;3.80;;;4.70;73.60;;;;;;4995139;28;20049;-70
2022/02/25 03:37:05;;;;;;;9.43;3.38;;;4.50;73.90;;;;;;4990293;28;20141;-69
2022/02/25 03:39:33;;;;;;;9.55;3.53;;;4.40;74.60;;;;;;4991295;28;20046;-70
2022/02/25 03:42:00;;;;;;;11.73;3.85;;;4.40;74.70;;;;;;4992356;28;20105;-70
2022/02/25 03:44:27;;;;;;;9.65;2.72;;;4.40;74.60;;;;;;4992510;28;20100;-70
2022/02/25 03:46:54;;;;;;;9.30;3.50;;;4.60;73.90;;;;;;4991915;28;20037;-70
2022/02/25 03:49:21;;;;;;;7.70;3.45;;;4.50;74.30;;;;;;4994355;28;20046;-70
2022/02/25 03:51:48;;;;;;;7.40;2.63;;;4.60;74.20;;;;;;4992333;28;20061;-70
2022/02/25 03:54:15;;;;;;;6.70;2.78;;;4.60;73.70;;;;;;4992549;28;20034;-70
2022/02/25 03:56:42;;;;;;;10.75;3.70;;;4.60;73.90;;;;;;4991476;28;20234;-69
2022/02/25 03:59:09;;;;;;;10.20;3.05;;;4.50;74.30;;;;;;4991061;28;20046;-70
2022/02/25 04:01:36;;;;;;;8.52;3.15;;;4.40;74.60;;;;;;4977147;28;20034;-70
2022/02/25 04:04:04;;;;;;;9.60;3.22;;;4.30;75.00;;;;;;4995575;28;20049;-69
2022/02/25 04:06:33;;;;;;;8.88;3.28;;;4.20;75.40;;;;;;4974220;28;20084;-70
2022/02/25 04:09:00;;;;;;;8.68;2.70;;;4.20;76.40;;;;;;4991427;28;20058;-70
2022/02/25 04:11:27;;;;;;;15.38;3.85;;;4.40;75.30;;;;;;4992023;28;20073;-69
2022/02/25 04:13:54;;;;;;;14.98;4.20;;;4.50;74.60;;;;;;5007239;28;20058;-70
2022/02/25 04:16:21;;;;;;;13.20;4.18;;;4.30;75.00;;;;;;4991195;28;20038;-70
2022/02/25 04:18:48;;;;;;;12.00;3.63;;;4.20;75.70;;;;;;4978886;28;20136;-70
2022/02/25 04:21:15;;;;;;;9.32;3.42;;;4.20;76.30;;;;;;4992614;28;20401;-69
2022/02/25 04:23:42;;;;;;;9.80;3.65;;;4.20;76.20;;;;;;4992266;28;20053;-70
2022/02/25 04:26:09;;;;;;;9.25;3.53;;;4.10;76.40;;;;;;4990529;28;20143;-69
2022/02/25 04:28:36;;;;;;;8.45;3.55;;;4.10;76.60;;;;;;4988904;28;20045;-69
2022/02/25 04:31:03;;;;;;;10.68;4.38;;;4.10;76.60;;;;;;4992457;28;20157;-70
2022/02/25 04:33:32;;;;;;;13.23;3.50;;;4.00;76.60;;;;;;5006215;28;20042;-70
2022/02/25 04:35:59;;;;;;;11.63;3.17;;;4.10;76.80;;;;;;4990346;28;20161;-69
2022/02/25 04:38:26;;;;;;;12.30;3.78;;;4.30;76.10;;;;;;5008850;28;20041;-70
2022/02/25 04:40:55;;;;;;;9.07;3.53;;;4.30;76.00;;;;;;4988269;28;20050;-69
2022/02/25 04:43:21;;;;;;;13.70;4.03;;;4.30;76.20;;;;;;4984572;28;20077;-70
2022/02/25 04:45:50;;;;;;;10.98;3.45;;;4.30;75.80;;;;;;4993419;28;20112;-70
2022/02/25 04:48:17;;;;;;;13.73;4.47;;;4.30;75.90;;;;;;4991378;28;20050;-70
2022/02/25 04:50:44;;;;;;;16.25;5.75;;;4.30;75.80;;;;;;4988899;28;20104;-69
2022/02/25 04:53:12;;;;;;;18.30;7.97;;;4.00;76.90;;;;;;4991364;28;20042;-69
2022/02/25 04:55:39;;;;;;;19.17;6.43;;;3.90;77.90;;;;;;5007191;28;20192;-70
2022/02/25 04:58:06;;;;;;;12.20;4.75;;;3.90;78.00;;;;;;4991853;28;20042;-70
2022/02/25 05:00:35;;;;;;;9.52;4.20;;;4.00;77.60;;;;;;4989216;28;20505;-70
2022/02/25 05:03:02;;;;;;;11.35;4.45;;;4.00;77.80;;;;;;4989176;28;20072;-70
2022/02/25 05:05:29;;;;;;;15.55;7.03;;;4.10;77.00;;;;;;4989672;28;20046;-69
2022/02/25 05:07:58;;;;;;;14.57;7.10;;;4.00;77.10;;;;;;4989298;28;20202;-69
2022/02/25 05:10:29;;;;;;;15.00;7.18;;;3.90;77.70;;;;;;4988477;28;20140;-70
2022/02/25 05:12:56;;;;;;;16.08;6.55;;;3.90;77.50;;;;;;4988583;28;20093;-70
2022/02/25 05:20:54;;;;;;;17.70;8.82;;;3.90;78.20;;;;;;4989301;28;20159;-72
2022/02/25 05:23:21;;;;;;;20.20;8.65;;;4.00;77.80;;;;;;4988724;28;20046;-70
2022/02/25 05:25:48;;;;;;;16.08;7.80;;;4.00;77.10;;;;;;5005889;28;20568;-69
2022/02/25 05:28:15;;;;;;;22.40;9.55;;;4.00;77.40;;;;;;5004099;28;20140;-70
2022/02/25 05:30:43;;;;;;;38.33;15.75;;;3.80;77.90;;;;;;4974108;28;20567;-70
2022/02/25 05:33:10;;;;;;;30.23;12.85;;;3.80;78.30;;;;;;4993448;28;20070;-70
2022/02/25 05:35:38;;;;;;;30.13;11.38;;;3.90;78.10;;;;;;4990434;28;20049;-70
2022/02/25 05:38:06;;;;;;;23.17;9.38;;;3.90;77.50;;;;;;4978999;28;20062;-70
2022/02/25 05:40:34;;;;;;;21.42;7.65;;;3.80;78.10;;;;;;4995349;28;22222;-69
2022/02/25 05:43:01;;;;;;;15.77;5.80;;;3.90;78.10;;;;;;4995173;28;20108;-70
2022/02/25 05:45:28;;;;;;;11.82;5.07;;;3.80;78.10;;;;;;4993468;28;20128;-69
2022/02/25 05:47:55;;;;;;;13.68;4.93;;;3.80;78.40;;;;;;4994269;28;20120;-70
2022/02/25 05:50:24;;;;;;;13.07;5.13;;;3.80;78.30;;;;;;4993095;28;20049;-70
2022/02/25 05:52:53;;;;;;;11.93;5.30;;;3.70;78.50;;;;;;4993138;28;20093;-70
2022/02/25 05:55:22;;;;;;;25.80;9.40;;;3.80;78.00;;;;;;4995256;28;20501;-69
2022/02/25 05:57:50;;;;;;;30.67;12.90;;;3.80;78.10;;;;;;4995136;28;20505;-70
2022/02/25 06:00:18;;;;;;;20.55;7.88;;;3.80;78.20;;;;;;4994292;28;20145;-70
2022/02/25 06:02:47;;;;;;;21.80;8.40;;;3.80;78.20;;;;;;4996627;28;20545;-70
2022/02/25 06:05:16;;;;;;;18.00;7.13;;;3.80;78.10;;;;;;4979965;28;20053;-70
2022/02/25 06:07:43;;;;;;;15.60;6.03;;;3.60;78.70;;;;;;4991557;28;20141;-70
2022/02/25 06:10:10;;;;;;;11.32;4.07;;;3.50;79.10;;;;;;4996677;28;20046;-70
2022/02/25 06:12:39;;;;;;;13.00;5.63;;;3.60;79.70;;;;;;4994666;28;20034;-70
2022/02/25 06:15:07;;;;;;;12.55;5.05;;;3.50;80.00;;;;;;5011294;28;20121;-70
2022/02/25 06:17:45;;;;;;;15.27;5.85;;;3.70;79.60;;;;;;4995433;28;20041;-70
2022/02/25 06:20:13;;;;;;;14.40;5.40;;;3.70;79.40;;;;;;4979054;28;20049;-69
2022/02/25 06:22:40;;;;;;;14.32;5.40;;;3.80;79.00;;;;;;4992925;28;20733;-69
2022/02/25 06:25:08;;;;;;;14.15;5.28;;;3.70;79.10;;;;;;4993848;28;20056;-69
2022/02/25 06:27:37;;;;;;;12.35;5.78;;;3.80;79.00;;;;;;4992106;28;20122;-70
2022/02/25 06:30:07;;;;;;;15.43;5.60;;;4.00;78.60;;;;;;4993487;28;20509;-70
2022/02/25 06:32:34;;;;;;;18.08;5.80;;;4.00;78.70;;;;;;5008607;28;20042;-70
2022/02/25 06:35:03;;;;;;;12.27;5.38;;;4.00;78.20;;;;;;4976706;28;20077;-70
2022/02/25 06:37:31;;;;;;;18.35;6.07;;;4.10;78.10;;;;;;4992325;28;20053;-70
2022/02/25 06:39:58;;;;;;;17.50;7.88;;;4.10;78.30;;;;;;4991887;28;20054;-69
2022/02/25 06:42:28;;;;;;;20.95;8.23;;;4.40;78.30;;;;;;4991247;28;20069;-69
2022/02/25 06:44:56;;;;;;;23.63;8.68;;;4.40;78.10;;;;;;4991224;28;23917;-70
2022/02/25 06:47:23;;;;;;;25.60;9.25;;;4.50;78.50;;;;;;4990870;28;20053;-69
2022/02/25 06:49:50;;;;;;;19.92;8.50;;;4.60;78.10;;;;;;5007354;28;20687;-70
2022/02/25 06:52:17;;;;;;;24.35;9.32;;;4.70;77.20;;;;;;4992301;28;20042;-70
2022/02/25 06:54:44;;;;;;;20.92;7.90;;;4.70;77.20;;;;;;4991476;28;20065;-70
2022/02/25 06:57:12;;;;;;;24.80;7.68;;;4.80;76.50;;;;;;4988240;28;20066;-70
2022/02/25 06:59:39;;;;;;;19.92;7.07;;;4.80;76.60;;;;;;4992503;28;20173;-70
2022/02/25 07:02:06;;;;;;;21.30;8.40;;;5.00;76.30;;;;;;4989092;28;20034;-70
2022/02/25 07:04:33;;;;;;;21.55;7.15;;;5.10;75.70;;;;;;4992488;28;20401;-70
2022/02/25 07:07:00;;;;;;;16.25;5.88;;;5.20;75.40;;;;;;5006391;28;20065;-70
2022/02/25 07:09:27;;;;;;;20.05;7.28;;;5.20;75.60;;;;;;4992668;28;20050;-70
2022/02/25 07:11:54;;;;;;;21.00;6.45;;;5.20;75.50;;;;;;4990916;28;20049;-70
2022/02/25 07:14:21;;;;;;;13.15;5.70;;;5.40;75.10;;;;;;4990813;28;20097;-70
2022/02/25 07:16:48;;;;;;;20.30;5.93;;;5.40;74.90;;;;;;4992611;28;20947;-70
2022/02/25 07:19:16;;;;;;;15.30;5.28;;;5.60;74.60;;;;;;4988625;28;20041;-70
2022/02/25 07:21:43;;;;;;;14.75;5.63;;;5.70;74.10;;;;;;4989101;28;20070;-70
2022/02/25 07:24:10;;;;;;;15.07;5.88;;;5.70;74.00;;;;;;4992012;28;20105;-70
2022/02/25 07:26:37;;;;;;;13.38;5.60;;;5.80;74.30;;;;;;4992099;28;20432;-70
2022/02/25 07:29:05;;;;;;;19.38;6.43;;;6.00;73.50;;;;;;4991110;28;20050;-70
2022/02/25 07:31:33;;;;;;;18.58;5.72;;;6.10;73.10;;;;;;4975719;28;20073;-70
2022/02/25 07:34:03;;;;;;;12.90;4.90;;;6.10;72.70;;;;;;4988868;28;20052;-70
2022/02/25 07:36:31;;;;;;;13.48;5.18;;;6.30;72.40;;;;;;4968092;28;1142976;-70
2022/02/25 07:38:58;;;;;;;13.48;4.82;;;6.20;72.40;;;;;;5008134;28;20038;-70
2022/02/25 07:41:25;;;;;;;14.20;5.50;;;6.30;71.80;;;;;;4991873;28;20034;-70
2022/02/25 07:43:53;;;;;;;16.60;5.90;;;6.50;71.60;;;;;;4977315;28;20113;-70
2022/02/25 07:46:22;;;;;;;13.15;4.43;;;6.40;71.50;;;;;;5005977;28;20160;-70
2022/02/25 07:49:10;;;;;;;12.27;4.00;;;6.60;71.50;;;;;;4987722;28;20069;-70
2022/02/25 07:51:37;;;;;;;9.68;4.47;;;6.70;71.50;;;;;;4992343;28;20053;-70
2022/02/25 07:54:04;;;;;;;11.18;4.88;;;6.70;71.40;;;;;;4974451;28;20042;-70
2022/02/25 07:56:31;;;;;;;11.40;4.60;;;6.90;70.30;;;;;;4997486;28;20049;-70
2022/02/25 07:58:58;;;;;;;14.10;4.85;;;7.00;70.50;;;;;;4995759;28;20456;-71
2022/02/25 08:01:26;;;;;;;10.80;4.70;;;7.10;69.80;;;;;;4991692;28;20460;-70
2022/02/25 08:03:54;;;;;;;12.93;4.60;;;7.20;70.20;;;;;;4988578;28;20053;-70
2022/02/25 08:06:21;;;;;;;9.90;4.15;;;7.30;69.30;;;;;;4991217;28;20169;-70
2022/02/25 08:08:48;;;;;;;13.57;4.43;;;7.40;69.20;;;;;;4991108;28;20125;-70
2022/02/25 08:11:15;;;;;;;8.32;4.50;;;7.60;68.60;;;;;;4991550;28;20052;-70
2022/02/25 08:13:42;;;;;;;10.52;4.45;;;7.80;68.20;;;;;;4992346;28;20073;-70
2022/02/25 08:16:10;;;;;;;11.85;4.68;;;7.90;67.20;;;;;;4991736;28;20417;-69
2022/02/25 08:18:37;;;;;;;10.38;4.88;;;7.90;67.00;;;;;;4990381;28;20042;-70
2022/02/25 08:21:05;;;;;;;11.35;4.68;;;7.90;66.70;;;;;;4990873;28;20041;-71
2022/02/25 08:23:32;;;;;;;12.07;5.50;;;8.00;66.70;;;;;;4988755;28;20101;-72
2022/02/25 08:25:59;;;;;;;13.05;5.50;;;8.00;66.50;;;;;;4993936;28;20072;-72
2022/02/25 08:28:26;;;;;;;11.23;4.43;;;8.10;66.20;;;;;;4990950;28;20132;-72
2022/02/25 08:30:54;;;;;;;10.15;4.50;;;8.00;65.80;;;;;;4990630;28;20054;-73
2022/02/25 08:33:21;;;;;;;12.70;4.75;;;8.00;65.50;;;;;;4993710;28;20772;-72
2022/02/25 08:35:48;;;;;;;12.55;4.13;;;8.00;65.50;;;;;;4987210;28;21127;-72
2022/02/25 08:38:17;;;;;;;12.90;4.80;;;7.90;66.00;;;;;;4992405;28;20044;-72
2022/02/25 08:40:45;;;;;;;10.27;4.40;;;7.90;66.10;;;;;;4987915;28;20096;-71
2022/02/25 08:43:13;;;;;;;12.07;4.20;;;7.90;65.90;;;;;;4989382;28;20038;-72
2022/02/25 08:45:41;;;;;;;9.43;4.40;;;8.00;66.30;;;;;;4976860;28;20042;-71
2022/02/25 08:48:11;;;;;;;10.20;4.40;;;8.20;66.80;;;;;;5007906;28;20050;-71
2022/02/25 08:50:39;;;;;;;13.82;6.20;;;8.40;65.10;;;;;;4992764;28;20046;-71
2022/02/25 08:53:06;;;;;;;13.68;5.45;;;8.50;64.30;;;;;;4975774;28;20883;-71
2022/02/25 08:55:34;;;;;;;14.13;5.82;;;8.70;63.70;;;;;;4979188;28;20080;-71
2022/02/25 08:58:01;;;;;;;11.38;4.95;;;8.90;64.00;;;;;;4974861;28;20057;-70
2022/02/25 09:00:29;;;;;;;16.30;5.10;;;9.10;63.70;;;;;;5002164;28;20053;-70
2022/02/25 09:02:56;;;;;;;12.05;4.90;;;9.30;63.70;;;;;;4989405;28;20044;-70
2022/02/25 09:05:24;;;;;;;12.73;5.03;;;9.40;63.00;;;;;;5004287;28;20809;-70
2022/02/25 09:07:53;;;;;;;12.95;5.60;;;9.50;62.90;;;;;;4989189;28;20042;-70
2022/02/25 09:10:21;;;;;;;14.68;5.15;;;9.60;61.50;;;;;;5003023;28;20046;-70
2022/02/25 09:12:49;;;;;;;10.65;5.28;;;9.70;61.50;;;;;;5002589;28;20137;-70
2022/02/25 09:15:22;;;;;;;13.23;4.70;;;9.80;61.30;;;;;;5008201;28;20034;-71
2022/02/25 09:17:55;;;;;;;10.27;4.55;;;10.00;61.40;;;;;;4989144;28;20046;-71
2022/02/25 09:20:23;;;;;;;14.77;5.45;;;10.10;60.80;;;;;;4990232;28;20181;-71
2022/02/25 09:22:51;;;;;;;13.02;5.00;;;10.20;59.50;;;;;;4972445;28;20057;-70
2022/02/25 09:25:25;;;;;;;9.80;4.78;;;10.20;60.00;;;;;;4988283;28;20175;-70
2022/02/25 09:27:52;;;;;;;13.38;5.30;;;10.40;60.80;;;;;;5004186;28;20062;-70
2022/02/25 09:30:20;;;;;;;11.18;4.82;;;10.60;60.50;;;;;;4990783;28;20302;-71
2022/02/25 09:32:48;;;;;;;10.55;5.38;;;10.80;60.40;;;;;;4991083;28;20153;-70
2022/02/25 09:35:15;;;;;;;9.85;4.20;;;10.90;59.30;;;;;;4986007;28;20038;-70
2022/02/25 09:37:43;;;;;;;12.90;5.32;;;11.00;58.80;;;;;;5004191;28;20761;-71
2022/02/25 09:40:13;;;;;;;10.02;4.88;;;10.90;58.50;;;;;;4992453;28;20049;-70
2022/02/25 09:42:42;;;;;;;12.27;4.32;;;11.10;58.40;;;;;;4988751;28;20053;-70
2022/02/25 09:45:11;;;;;;;12.30;2.63;;;11.20;59.10;;;;;;5006832;28;20054;-71
2022/02/25 09:47:38;;;;;;;8.15;3.00;;;11.30;60.40;;;;;;4991074;28;20133;-70
2022/02/25 09:50:09;;;;;;;7.97;2.58;;;11.40;60.10;;;;;;4988673;28;20037;-71
2022/02/25 09:52:38;;;;;;;7.03;2.15;;;11.40;59.50;;;;;;4992998;28;20041;-70
2022/02/25 09:55:08;;;;;;;4.25;1.92;;;11.50;59.90;;;;;;5005586;28;20489;-70
2022/02/25 09:57:35;;;;;;;3.75;1.42;;;11.40;59.10;;;;;;4992478;28;20034;-70
2022/02/25 10:00:03;;;;;;;5.70;1.95;;;11.20;59.00;;;;;;4974141;28;20038;-72
2022/02/25 10:02:46;;;;;;;6.70;1.70;;;11.40;60.30;;;;;;4991225;28;20056;-70
2022/02/25 10:05:16;;;;;;;4.28;1.73;;;11.40;59.20;;;;;;4986843;28;20050;-71
2022/02/25 10:07:43;;;;;;;6.70;1.33;;;11.40;58.90;;;;;;4989511;28;20042;-70
2022/02/25 10:10:13;;;;;;;4.80;1.85;;;11.50;60.00;;;;;;4987655;28;20536;-71
2022/02/25 10:12:55;;;;;;;5.20;1.42;;;11.70;59.20;;;;;;4991820;28;20042;-70
2022/02/25 10:15:35;;;;;;;6.40;2.00;;;11.80;58.60;;;;;;4991691;28;20642;-70
2022/02/25 10:18:05;;;;;;;4.68;1.38;;;11.80;59.30;;;;;;4987855;28;20041;-70
2022/02/25 10:20:33;;;;;;;7.32;1.63;;;12.00;59.10;;;;;;4987860;28;20097;-71
2022/02/25 10:23:21;;;;;;;5.53;1.55;;;12.10;58.20;;;;;;4996185;28;20045;-71
2022/02/25 10:25:49;;;;;;;4.35;1.48;;;12.10;57.90;;;;;;4993588;28;20064;-70
2022/02/25 10:28:27;;;;;;;5.10;2.15;;;12.20;57.80;;;;;;5009319;28;20045;-70
2022/02/25 10:31:26;;;;;;;4.32;1.60;;;12.20;58.20;;;;;;4990858;28;20508;-70
2022/02/25 10:34:05;;;;;;;4.63;1.83;;;12.40;57.70;;;;;;4993745;28;20045;-71
2022/02/25 10:36:51;;;;;;;5.30;1.58;;;12.70;57.60;;;;;;5008715;28;20041;-70
2022/02/25 10:39:24;;;;;;;11.40;2.15;;;12.80;57.30;;;;;;4995905;28;20034;-72
2022/02/25 10:42:02;;;;;;;5.45;1.60;;;13.00;56.60;;;;;;4991340;28;20121;-71
2022/02/25 10:44:44;;;;;;;5.30;2.00;;;13.00;56.30;;;;;;4993206;28;20053;-70
2022/02/25 10:47:27;;;;;;;3.45;1.55;;;13.00;55.50;;;;;;4993174;28;20056;-71
2022/02/25 10:50:09;;;;;;;5.47;1.83;;;12.90;56.20;;;;;;4990811;28;20046;-71
2022/02/25 10:52:39;;;;;;;4.88;1.80;;;12.80;56.60;;;;;;4989884;28;20413;-71
2022/02/25 10:55:12;;;;;;;4.38;1.65;;;13.00;56.90;;;;;;4993369;28;20037;-71
2022/02/25 10:57:39;;;;;;;3.78;1.50;;;13.10;55.70;;;;;;4992602;28;20046;-71
2022/02/25 11:00:11;;;;;;;5.28;2.15;;;12.90;56.00;;;;;;4995888;28;20037;-71
2022/02/25 11:02:47;;;;;;;7.68;2.38;;;12.80;56.40;;;;;;4989507;28;20039;-72
2022/02/25 11:05:20;;;;;;;4.75;1.73;;;12.50;57.00;;;;;;4993110;28;20124;-72
2022/02/25 11:07:53;;;;;;;9.32;2.40;;;12.10;57.30;;;;;;4994211;28;20049;-72
2022/02/25 11:10:23;;;;;;;7.28;2.75;;;12.00;58.20;;;;;;4990729;28;20053;-72
2022/02/25 11:12:52;;;;;;;7.30;2.20;;;11.90;59.00;;;;;;5008316;28;20097;-72
2022/02/25 11:15:23;;;;;;;3.88;1.45;;;12.00;58.20;;;;;;4993771;28;20046;-71
2022/02/25 11:17:50;;;;;;;5.95;1.60;;;12.20;58.40;;;;;;4990752;28;20053;-71
2022/02/25 11:20:23;;;;;;;3.28;1.83;;;12.50;58.30;;;;;;4991208;28;20446;-70
2022/02/25 11:22:53;;;;;;;4.90;1.95;;;12.90;56.80;;;;;;4990898;28;20042;-70
2022/02/25 11:25:21;;;;;;;3.78;1.08;;;13.10;56.50;;;;;;4992223;28;20437;-70
2022/02/25 11:27:48;;;;;;;4.75;1.00;;;13.20;55.60;;;;;;4991915;28;20073;-70
2022/02/25 11:30:36;;;;;;;2.40;0.77;;;13.20;54.90;;;;;;4992980;28;20096;-70
2022/02/25 11:33:08;;;;;;;2.28;0.80;;;13.20;54.20;;;;;;5009379;28;20049;-70
2022/02/25 11:35:46;;;;;;;3.28;1.20;;;13.30;53.20;;;;;;4990911;28;20050;-70
2022/02/25 11:38:14;;;;;;;1.40;0.50;;;13.30;53.50;;;;;;4993364;28;20049;-71
2022/02/25 11:40:49;;;;;;;2.55;0.60;;;13.00;53.60;;;;;;4988632;28;20046;-70
2022/02/25 11:43:29;;;;;;;1.48;0.60;;;13.10;52.70;;;;;;5005008;28;20518;-71
2022/02/25 11:45:56;;;;;;;1.42;0.57;;;13.20;52.30;;;;;;4990913;28;20988;-71
2022/02/25 11:48:39;;;;;;;2.08;0.40;;;13.10;51.50;;;;;;4995822;28;20049;-70
2022/02/25 11:51:08;;;;;;;1.35;0.50;;;13.10;51.30;;;;;;5007908;28;20046;-70
2022/02/25 11:53:36;;;;;;;0.98;0.43;;;13.30;51.70;;;;;;4990154;28;20065;-73
2022/02/25 11:56:20;;;;;;;1.40;0.30;;;13.40;50.00;;;;;;4968020;28;20125;-71
2022/02/25 11:58:51;;;;;;;3.28;0.40;;;13.20;48.50;;;;;;4993337;28;20101;-70
2022/02/25 12:01:23;;;;;;;2.28;0.35;;;13.00;48.60;;;;;;5008897;28;20568;-71
2022/02/25 12:04:05;;;;;;;0.77;0.30;;;13.00;49.00;;;;;;4988227;28;20045;-71
2022/02/25 12:07:11;;;;;;;0.85;0.50;;;12.90;48.90;;;;;;5007560;28;20771;-71
2022/02/25 12:09:45;;;;;;;3.45;0.65;;;12.90;49.40;;;;;;4956226;28;20544;-70
2022/02/25 12:12:23;;;;;;;3.78;0.60;;;12.70;49.90;;;;;;4993469;28;20056;-70
2022/02/25 12:15:09;;;;;;;5.15;0.70;;;12.60;50.10;;;;;;4996129;28;20046;-71
2022/02/25 12:17:55;;;;;;;1.23;0.50;;;12.70;50.40;;;;;;5009645;28;20053;-71
2022/02/25 12:20:37;;;;;;;1.27;0.35;;;12.50;50.10;;;;;;4992928;28;20050;-71
2022/02/25 12:23:08;;;;;;;3.05;0.50;;;12.20;50.70;;;;;;4992762;28;20680;-70
2022/02/25 12:25:41;;;;;;;1.17;0.40;;;11.80;51.50;;;;;;4993693;28;21051;-70
2022/02/25 12:28:20;;;;;;;2.05;0.43;;;11.70;51.60;;;;;;4994147;28;20053;-71
2022/02/25 12:30:58;;;;;;;3.28;0.93;;;11.70;52.40;;;;;;4995427;28;20666;-71
2022/02/25 12:33:33;;;;;;;2.92;0.75;;;11.70;52.20;;;;;;4995673;28;20041;-71
2022/02/25 12:36:02;;;;;;;2.83;0.63;;;11.90;52.30;;;;;;4995821;28;20065;-70
2022/02/25 12:38:36;;;;;;;1.40;0.70;;;12.00;52.30;;;;;;4994471;28;20036;-71
2022/02/25 12:41:16;;;;;;;1.70;0.35;;;12.10;51.20;;;;;;4992788;28;20034;-71
2022/02/25 12:43:44;;;;;;;1.13;0.40;;;12.20;50.40;;;;;;5009928;28;20042;-71
2022/02/25 12:46:12;;;;;;;2.75;0.43;;;12.10;49.50;;;;;;4992828;28;20159;-71
2022/02/25 12:48:39;;;;;;;1.77;0.30;;;11.90;48.90;;;;;;4996419;28;20073;-71
2022/02/25 12:51:06;;;;;;;0.85;0.30;;;11.80;49.50;;;;;;4995566;28;20100;-70
2022/02/25 12:53:57;;;;;;;0.70;0.20;;;11.60;50.20;;;;;;4991922;28;20125;-71
2022/02/25 12:56:33;;;;;;;0.82;0.20;;;11.60;49.40;;;;;;4981289;28;20049;-71
2022/02/25 12:59:10;;;;;;;0.70;0.10;;;11.60;49.60;;;;;;4995141;28;20049;-70
2022/02/25 13:01:46;;;;;;;0.95;0.20;;;11.50;49.40;;;;;;4994757;28;20045;-70
2022/02/25 13:04:18;;;;;;;1.02;0.10;;;11.40;48.80;;;;;;5007321;28;20045;-71
2022/02/25 13:06:52;;;;;;;0.52;0.22;;;11.30;48.60;;;;;;4991966;28;20084;-70